createdAt,value
2022-09-26T00:00:09.321Z,100.00
2022-09-26T00:04:23.005Z,100.00
2022-09-26T00:08:25.224Z,100.00
2022-09-26T00:12:26.678Z,100.00
2022-09-26T00:16:28.999Z,100.00
2022-09-26T00:20:30.459Z,100.00
2022-09-26T00:24:32.032Z,100.00
2022-09-26T00:28:34.233Z,100.00
2022-09-26T00:32:35.704Z,100.00
2022-09-26T00:36:38.723Z,100.00
2022-09-26T00:40:40.494Z,100.00
2022-09-26T00:44:44.950Z,100.00
2022-09-26T00:48:51.418Z,100.00
2022-09-26T00:52:59.409Z,100.00
2022-09-26T00:57:06.268Z,100.00
2022-09-26T01:01:09.092Z,100.00
2022-09-26T01:05:14.664Z,100.00
2022-09-26T01:09:16.594Z,100.00
2022-09-26T01:13:18.189Z,100.00
2022-09-26T01:17:21.451Z,100.00
2022-09-26T01:21:22.815Z,100.00
2022-09-26T01:25:45.427Z,100.00
2022-09-26T01:29:52.948Z,100.00
2022-09-26T01:34:04.650Z,100.00
2022-09-26T01:38:33.043Z,100.00
2022-09-26T01:42:45.901Z,100.00
2022-09-26T01:47:20.911Z,100.00
2022-09-26T01:51:35.885Z,100.00
2022-09-26T01:55:41.892Z,100.00
2022-09-26T01:59:50.046Z,100.00
2022-09-26T02:03:57.201Z,100.00
2022-09-26T02:08:06.854Z,100.00
2022-09-26T02:12:11.839Z,100.00
2022-09-26T02:16:26.108Z,100.00
2022-09-26T02:20:32.595Z,100.00
2022-09-26T02:24:34.120Z,100.00
2022-09-26T02:28:36.240Z,100.00
2022-09-26T02:32:40.352Z,100.00
2022-09-26T02:36:42.372Z,100.00
2022-09-26T02:41:02.952Z,100.00
2022-09-26T02:45:21.853Z,100.00
2022-09-26T02:49:50.445Z,100.00
2022-09-26T02:54:09.837Z,100.00
2022-09-26T02:58:35.895Z,100.00
2022-09-26T03:02:45.656Z,100.00
2022-09-26T03:06:56.553Z,100.00
2022-09-26T03:11:02.858Z,100.00
2022-09-26T03:15:07.105Z,100.00
2022-09-26T03:19:16.733Z,100.00
2022-09-26T03:23:23.169Z,100.00
2022-09-26T03:27:25.444Z,100.00
2022-09-26T03:31:28.888Z,100.00
2022-09-26T03:35:39.951Z,100.00
2022-09-26T03:39:41.360Z,100.00
2022-09-26T03:43:49.559Z,100.00
2022-09-26T03:47:58.195Z,100.00
2022-09-26T03:52:00.784Z,100.00
2022-09-26T03:56:07.919Z,100.00
2022-09-26T04:00:10.020Z,100.00
2022-09-26T04:04:22.507Z,100.00
2022-09-26T04:08:24.225Z,100.00
2022-09-26T04:12:25.742Z,100.00
2022-09-26T04:16:27.297Z,100.00
2022-09-26T04:20:35.837Z,100.00
2022-09-26T04:24:37.431Z,100.00
2022-09-26T04:28:40.869Z,100.00
2022-09-26T04:32:43.848Z,100.00
2022-09-26T04:37:14.486Z,100.00
2022-09-26T04:41:21.418Z,100.00
2022-09-26T04:45:24.545Z,100.00
2022-09-26T04:49:26.070Z,100.00
2022-09-26T04:53:27.489Z,100.00
2022-09-26T04:57:41.544Z,100.00
2022-09-26T05:01:43.245Z,100.00
2022-09-26T05:05:50.328Z,100.00
2022-09-26T05:09:53.032Z,100.00
2022-09-26T05:13:56.002Z,100.00
2022-09-26T05:18:03.970Z,100.00
2022-09-26T05:22:05.978Z,100.00
2022-09-26T05:26:23.197Z,100.00
2022-09-26T05:30:26.276Z,100.00
2022-09-26T05:34:28.242Z,100.00
2022-09-26T05:38:29.893Z,100.00
2022-09-26T05:42:31.463Z,100.00
2022-09-26T05:46:34.763Z,100.00
2022-09-26T05:50:43.988Z,100.00
2022-09-26T05:54:45.543Z,100.00
2022-09-26T05:59:16.509Z,100.00
2022-09-26T06:03:37.151Z,100.00
2022-09-26T06:07:45.630Z,100.00
2022-09-26T06:11:58.927Z,100.00
2022-09-26T06:16:07.354Z,100.00
2022-09-26T06:20:09.445Z,100.00
2022-09-26T06:24:13.066Z,100.00
2022-09-26T06:28:15.824Z,100.00
2022-09-26T06:32:17.332Z,100.00
2022-09-26T06:36:38.105Z,100.00
2022-09-26T06:40:39.757Z,100.00
2022-09-26T06:44:41.405Z,100.00
2022-09-26T06:48:58.027Z,100.00
2022-09-26T06:53:16.619Z,100.00
2022-09-26T06:57:18.160Z,100.00
2022-09-26T07:01:19.960Z,100.00
2022-09-26T07:05:39.906Z,100.00
2022-09-26T07:09:41.376Z,100.00
2022-09-26T07:14:01.984Z,100.00
2022-09-26T07:18:06.388Z,100.00
2022-09-26T07:22:29.253Z,100.00
2022-09-26T07:26:30.685Z,100.00
2022-09-26T07:30:32.536Z,100.00
2022-09-26T07:34:42.700Z,100.00
2022-09-26T07:38:48.480Z,100.00
2022-09-26T07:43:15.192Z,100.00
2022-09-26T07:47:32.985Z,100.00
2022-09-26T07:51:36.890Z,100.00
2022-09-26T07:56:01.016Z,100.00
2022-09-26T08:00:31.405Z,100.00
2022-09-26T08:04:41.062Z,100.00
2022-09-26T08:08:42.587Z,100.00
2022-09-26T08:13:07.344Z,100.00
2022-09-26T08:17:20.554Z,100.00
2022-09-26T08:21:23.084Z,100.00
2022-09-26T08:25:27.114Z,100.00
2022-09-26T08:29:37.421Z,100.00
2022-09-26T08:33:39.104Z,100.00
2022-09-26T08:37:40.660Z,100.00
2022-09-26T08:42:13.084Z,100.00
2022-09-26T08:46:42.462Z,100.00
2022-09-26T08:51:19.566Z,100.00
2022-09-26T08:55:25.410Z,100.00
2022-09-26T08:59:37.765Z,100.00
2022-09-26T09:04:09.699Z,100.00
2022-09-26T09:08:22.586Z,100.00
2022-09-26T09:13:06.541Z,100.00
2022-09-26T09:17:41.923Z,100.00
2022-09-26T09:22:11.749Z,100.00
2022-09-26T09:31:15.543Z,100.00
2022-09-26T09:35:42.420Z,100.00
2022-09-26T09:40:17.487Z,100.00
2022-09-26T09:44:46.804Z,100.00
2022-09-26T09:48:50.301Z,100.00
2022-09-26T09:53:13.344Z,100.00
2022-09-26T09:57:41.092Z,100.00
2022-09-26T10:01:46.488Z,100.00
2022-09-26T10:05:58.072Z,100.00
2022-09-26T10:10:04.789Z,100.00
2022-09-26T10:14:34.006Z,100.00
2022-09-26T10:19:06.176Z,100.00
2022-09-26T10:23:22.148Z,100.00
2022-09-26T10:27:41.003Z,100.00
2022-09-26T10:31:45.277Z,100.00
2022-09-26T10:35:52.679Z,100.00
2022-09-26T10:40:16.808Z,100.00
2022-09-26T10:44:34.138Z,100.00
2022-09-26T10:49:02.489Z,98.65
2022-09-26T10:53:23.161Z,100.00
2022-09-26T10:57:34.762Z,97.81
2022-09-26T11:01:43.149Z,97.48
2022-09-26T11:05:57.228Z,98.11
2022-09-26T11:10:08.376Z,100.00
2022-09-26T11:14:29.106Z,98.01
2022-09-26T11:18:42.987Z,98.22
2022-09-26T11:22:51.710Z,97.24
2022-09-26T11:27:05.955Z,95.10
2022-09-26T11:31:22.810Z,93.76
2022-09-26T11:35:34.479Z,94.67
2022-09-26T11:40:08.603Z,94.92
2022-09-26T11:44:33.016Z,94.67
2022-09-26T11:49:02.861Z,95.27
2022-09-26T11:53:46.787Z,95.82
2022-09-26T11:58:06.147Z,97.25
2022-09-26T12:02:34.060Z,92.95
2022-09-26T12:07:03.506Z,89.27
2022-09-26T12:11:23.409Z,86.60
2022-09-26T12:16:09.490Z,85.97
2022-09-26T12:20:28.193Z,79.79
2022-09-26T12:24:59.771Z,80.67
2022-09-26T12:29:28.915Z,86.34
2022-09-26T12:33:52.004Z,91.99
2022-09-26T12:38:08.539Z,90.27
2022-09-26T12:42:12.851Z,94.26
2022-09-26T12:46:41.602Z,94.87
2022-09-26T12:51:22.142Z,97.39
2022-09-26T12:55:35.829Z,100.00
2022-09-26T13:00:18.488Z,100.00
2022-09-26T13:04:41.647Z,99.69
2022-09-26T13:09:13.940Z,97.07
2022-09-26T13:13:38.567Z,93.36
2022-09-26T13:17:45.999Z,96.31
2022-09-26T13:21:56.304Z,95.55
2022-09-26T13:26:05.842Z,97.07
2022-09-26T13:30:16.904Z,100.00
2022-09-26T13:34:28.014Z,100.00
2022-09-26T13:38:53.888Z,100.00
2022-09-26T13:43:07.409Z,100.00
2022-09-26T13:47:25.700Z,100.00
2022-09-26T13:51:40.115Z,100.00
2022-09-26T13:55:43.398Z,100.00
2022-09-26T13:59:51.479Z,100.00
2022-09-26T14:04:18.838Z,100.00
2022-09-26T14:08:45.275Z,100.00
2022-09-26T14:13:08.365Z,100.00
2022-09-26T14:17:42.207Z,100.00
2022-09-26T14:22:05.557Z,100.00
2022-09-26T14:26:11.374Z,100.00
2022-09-26T14:30:12.753Z,100.00
2022-09-26T14:34:20.768Z,100.00
2022-09-26T14:38:22.329Z,100.00
2022-09-26T14:42:31.941Z,100.00
2022-09-26T14:46:35.536Z,100.00
2022-09-26T14:51:03.694Z,100.00
2022-09-26T14:55:07.463Z,100.00
2022-09-26T14:59:24.223Z,100.00
2022-09-26T15:03:25.881Z,100.00
2022-09-26T15:07:30.936Z,100.00
2022-09-26T15:11:37.455Z,100.00
2022-09-26T15:15:58.394Z,100.00
2022-09-26T15:20:02.788Z,100.00
2022-09-26T15:24:26.349Z,98.26
2022-09-26T15:28:30.969Z,100.00
2022-09-26T15:32:33.532Z,99.54
2022-09-26T15:36:36.588Z,99.46
2022-09-26T15:40:38.044Z,100.00
2022-09-26T15:44:48.341Z,100.00
2022-09-26T15:48:51.649Z,100.00
2022-09-26T15:53:09.823Z,100.00
2022-09-26T15:57:11.500Z,100.00
2022-09-26T16:01:21.930Z,100.00
2022-09-26T16:05:23.511Z,100.00
2022-09-26T16:09:37.414Z,100.00
2022-09-26T16:13:46.201Z,100.00
2022-09-26T16:17:53.769Z,100.00
2022-09-26T16:21:56.621Z,100.00
2022-09-26T16:25:58.069Z,100.00
2022-09-26T16:30:04.743Z,100.00
2022-09-26T16:34:19.848Z,100.00
2022-09-26T16:38:32.184Z,100.00
2022-09-26T16:42:33.613Z,100.00
2022-09-26T16:46:37.602Z,100.00
2022-09-26T16:50:40.165Z,100.00
2022-09-26T16:54:41.722Z,100.00
2022-09-26T16:58:53.047Z,100.00
2022-09-26T17:02:54.520Z,100.00
2022-09-26T17:06:59.484Z,100.00
2022-09-26T17:11:03.496Z,100.00
2022-09-26T17:15:06.615Z,100.00
2022-09-26T17:19:12.037Z,100.00
2022-09-26T17:23:38.242Z,100.00
2022-09-26T17:27:36.017Z,100.00
2022-09-26T17:31:38.694Z,100.00
2022-09-26T17:35:41.825Z,100.00
2022-09-26T17:39:44.377Z,100.00
2022-09-26T17:43:45.805Z,100.00
2022-09-26T17:47:47.489Z,100.00
2022-09-26T17:51:49.130Z,100.00
2022-09-26T17:55:52.977Z,100.00
2022-09-26T17:59:54.806Z,100.00
2022-09-26T18:04:01.153Z,100.00
2022-09-26T18:08:23.488Z,100.00
2022-09-26T18:12:25.440Z,100.00
2022-09-26T18:16:26.946Z,100.00
2022-09-26T18:20:37.453Z,100.00
2022-09-26T18:24:38.872Z,100.00
2022-09-26T18:28:40.384Z,100.00
2022-09-26T18:32:44.488Z,100.00
2022-09-26T18:36:46.663Z,100.00
2022-09-26T18:40:55.264Z,100.00
2022-09-26T18:45:05.907Z,100.00
2022-09-26T18:49:11.990Z,100.00
2022-09-26T18:53:29.504Z,100.00
2022-09-26T18:57:57.302Z,100.00
2022-09-26T19:02:01.230Z,100.00
2022-09-26T19:06:12.512Z,100.00
2022-09-26T19:10:20.118Z,100.00
2022-09-26T19:14:27.586Z,100.00
2022-09-26T19:18:28.996Z,100.00
2022-09-26T19:22:31.155Z,100.00
2022-09-26T19:26:43.390Z,100.00
2022-09-26T19:30:44.927Z,100.00
2022-09-26T19:34:52.442Z,100.00
2022-09-26T19:38:54.114Z,100.00
2022-09-26T19:42:57.070Z,100.00
2022-09-26T19:46:59.751Z,100.00
2022-09-26T19:51:01.443Z,100.00
2022-09-26T19:55:05.677Z,100.00
2022-09-26T19:59:09.695Z,100.00
2022-09-26T20:03:17.755Z,100.00
2022-09-26T20:07:19.703Z,100.00
2022-09-26T20:11:22.262Z,100.00
2022-09-26T20:15:24.375Z,100.00
2022-09-26T20:19:25.801Z,100.00
2022-09-26T20:23:27.400Z,100.00
2022-09-26T20:27:29.428Z,100.00
2022-09-26T20:31:30.841Z,100.00
2022-09-26T20:35:36.713Z,100.00
2022-09-26T20:39:39.382Z,100.00
2022-09-26T20:43:44.120Z,100.00
2022-09-26T20:47:45.843Z,100.00
2022-09-26T20:51:48.256Z,100.00
2022-09-26T20:55:51.028Z,100.00
2022-09-26T20:59:52.542Z,100.00
2022-09-26T21:03:55.412Z,100.00
2022-09-26T21:07:58.984Z,100.00
2022-09-26T21:12:01.445Z,100.00
2022-09-26T21:16:02.976Z,100.00
2022-09-26T21:20:05.321Z,100.00
2022-09-26T21:24:31.142Z,100.00
2022-09-26T21:28:32.587Z,100.00
2022-09-26T21:32:34.525Z,100.00
2022-09-26T21:36:40.277Z,100.00
2022-09-26T21:40:43.724Z,100.00
2022-09-26T21:44:51.148Z,100.00
2022-09-26T21:48:53.972Z,100.00
2022-09-26T21:53:05.092Z,100.00
2022-09-26T21:57:27.287Z,100.00
2022-09-26T22:01:28.729Z,100.00
2022-09-26T22:05:31.260Z,100.00
2022-09-26T22:09:32.697Z,100.00
2022-09-26T22:13:36.016Z,100.00
2022-09-26T22:17:37.505Z,100.00
2022-09-26T22:21:39.184Z,100.00
2022-09-26T22:25:42.937Z,100.00
2022-09-26T22:29:44.558Z,100.00
2022-09-26T22:33:46.079Z,100.00
2022-09-26T22:37:47.540Z,100.00
2022-09-26T22:41:48.997Z,100.00
2022-09-26T22:45:50.438Z,100.00
2022-09-26T22:49:51.936Z,100.00
2022-09-26T22:53:53.351Z,100.00
2022-09-26T22:57:54.807Z,100.00
2022-09-26T23:01:57.078Z,100.00
2022-09-26T23:05:59.480Z,100.00
2022-09-26T23:10:00.892Z,100.00
2022-09-26T23:14:02.466Z,100.00
2022-09-26T23:18:03.940Z,100.00
2022-09-26T23:22:05.696Z,100.00
2022-09-26T23:26:07.876Z,100.00
2022-09-26T23:30:09.895Z,100.00
2022-09-26T23:34:12.081Z,100.00
2022-09-26T23:38:13.482Z,100.00
2022-09-26T23:42:15.086Z,100.00
2022-09-26T23:46:16.630Z,100.00
2022-09-26T23:50:18.086Z,100.00
2022-09-26T23:54:19.495Z,100.00
2022-09-26T23:58:20.901Z,100.00
